sensor_id;sensor_type;location;lat;lon;timestamp;temperature;humidity
74364;DHT22;62797;49.740;10.154;2023-05-20T00:01:36;14.80;37.60
74364;DHT22;62797;49.740;10.154;2023-05-20T00:04:01;14.70;38.20
74364;DHT22;62797;49.740;10.154;2023-05-20T00:06:27;14.70;37.30
74364;DHT22;62797;49.740;10.154;2023-05-20T00:08:53;14.70;39.60
74364;DHT22;62797;49.740;10.154;2023-05-20T00:11:20;14.70;38.50
74364;DHT22;62797;49.740;10.154;2023-05-20T00:13:46;14.70;38.50
74364;DHT22;62797;49.740;10.154;2023-05-20T00:16:12;14.70;37.90
74364;DHT22;62797;49.740;10.154;2023-05-20T00:18:38;14.70;38.10
74364;DHT22;62797;49.740;10.154;2023-05-20T00:21:05;14.70;39.50
74364;DHT22;62797;49.740;10.154;2023-05-20T00:23:30;14.70;38.60
74364;DHT22;62797;49.740;10.154;2023-05-20T00:25:56;14.70;38.90
74364;DHT22;62797;49.740;10.154;2023-05-20T00:28:22;14.60;38.90
74364;DHT22;62797;49.740;10.154;2023-05-20T00:30:48;14.70;38.50
74364;DHT22;62797;49.740;10.154;2023-05-20T00:33:14;14.70;39.40
74364;DHT22;62797;49.740;10.154;2023-05-20T00:35:42;14.70;38.90
74364;DHT22;62797;49.740;10.154;2023-05-20T00:38:08;14.70;38.90
74364;DHT22;62797;49.740;10.154;2023-05-20T00:40:34;14.70;39.20
74364;DHT22;62797;49.740;10.154;2023-05-20T00:43:00;14.70;39.20
74364;DHT22;62797;49.740;10.154;2023-05-20T00:45:26;14.60;38.80
74364;DHT22;62797;49.740;10.154;2023-05-20T00:47:52;14.70;38.90
74364;DHT22;62797;49.740;10.154;2023-05-20T00:50:21;14.70;39.40
74364;DHT22;62797;49.740;10.154;2023-05-20T00:52:48;14.70;39.30
74364;DHT22;62797;49.740;10.154;2023-05-20T00:55:16;14.70;39.80
74364;DHT22;62797;49.740;10.154;2023-05-20T00:57:42;14.70;39.50
74364;DHT22;62797;49.740;10.154;2023-05-20T01:00:08;14.70;39.20
74364;DHT22;62797;49.740;10.154;2023-05-20T01:02:35;14.70;39.60
74364;DHT22;62797;49.740;10.154;2023-05-20T01:05:01;14.70;39.40
74364;DHT22;62797;49.740;10.154;2023-05-20T01:07:27;14.60;39.90
74364;DHT22;62797;49.740;10.154;2023-05-20T01:09:53;14.60;39.60
74364;DHT22;62797;49.740;10.154;2023-05-20T01:12:38;14.60;39.50
74364;DHT22;62797;49.740;10.154;2023-05-20T01:15:14;14.70;39.60
74364;DHT22;62797;49.740;10.154;2023-05-20T01:17:46;14.70;39.30
74364;DHT22;62797;49.740;10.154;2023-05-20T01:20:13;14.70;39.60
74364;DHT22;62797;49.740;10.154;2023-05-20T01:22:47;14.70;39.40
74364;DHT22;62797;49.740;10.154;2023-05-20T01:25:13;14.70;39.60
74364;DHT22;62797;49.740;10.154;2023-05-20T01:27:38;14.70;39.90
74364;DHT22;62797;49.740;10.154;2023-05-20T01:30:06;14.70;39.80
74364;DHT22;62797;49.740;10.154;2023-05-20T01:32:36;14.70;39.90
74364;DHT22;62797;49.740;10.154;2023-05-20T01:35:04;14.70;40.20
74364;DHT22;62797;49.740;10.154;2023-05-20T01:37:31;14.70;39.80
74364;DHT22;62797;49.740;10.154;2023-05-20T01:39:59;14.70;40.30
74364;DHT22;62797;49.740;10.154;2023-05-20T01:42:27;14.70;40.30
74364;DHT22;62797;49.740;10.154;2023-05-20T01:44:53;14.70;40.50
74364;DHT22;62797;49.740;10.154;2023-05-20T01:47:19;14.70;40.20
74364;DHT22;62797;49.740;10.154;2023-05-20T01:49:46;14.70;40.50
74364;DHT22;62797;49.740;10.154;2023-05-20T01:52:12;14.70;40.60
74364;DHT22;62797;49.740;10.154;2023-05-20T01:54:38;14.80;40.20
74364;DHT22;62797;49.740;10.154;2023-05-20T01:57:05;14.80;40.80
74364;DHT22;62797;49.740;10.154;2023-05-20T01:59:31;14.70;40.90
74364;DHT22;62797;49.740;10.154;2023-05-20T02:01:56;14.70;41.10
74364;DHT22;62797;49.740;10.154;2023-05-20T02:04:22;14.70;40.90
74364;DHT22;62797;49.740;10.154;2023-05-20T02:06:48;14.80;40.40
74364;DHT22;62797;49.740;10.154;2023-05-20T02:09:14;14.70;41.00
74364;DHT22;62797;49.740;10.154;2023-05-20T02:11:40;14.80;40.70
74364;DHT22;62797;49.740;10.154;2023-05-20T02:14:06;14.80;41.00
74364;DHT22;62797;49.740;10.154;2023-05-20T02:16:32;14.80;41.00
74364;DHT22;62797;49.740;10.154;2023-05-20T02:18:58;14.80;41.00
74364;DHT22;62797;49.740;10.154;2023-05-20T02:21:24;14.80;41.00
74364;DHT22;62797;49.740;10.154;2023-05-20T02:23:50;14.80;41.30
74364;DHT22;62797;49.740;10.154;2023-05-20T02:26:16;14.80;41.30
74364;DHT22;62797;49.740;10.154;2023-05-20T02:28:43;14.80;41.40
74364;DHT22;62797;49.740;10.154;2023-05-20T02:31:12;14.70;41.60
74364;DHT22;62797;49.740;10.154;2023-05-20T02:33:38;14.80;41.40
74364;DHT22;62797;49.740;10.154;2023-05-20T02:36:05;14.80;41.40
74364;DHT22;62797;49.740;10.154;2023-05-20T02:38:31;14.80;41.40
74364;DHT22;62797;49.740;10.154;2023-05-20T02:40:58;14.70;41.90
74364;DHT22;62797;49.740;10.154;2023-05-20T02:43:24;14.70;41.50
74364;DHT22;62797;49.740;10.154;2023-05-20T02:45:50;14.80;41.80
74364;DHT22;62797;49.740;10.154;2023-05-20T02:48:16;14.80;41.90
74364;DHT22;62797;49.740;10.154;2023-05-20T02:50:44;14.80;41.70
74364;DHT22;62797;49.740;10.154;2023-05-20T02:53:09;14.80;41.30
74364;DHT22;62797;49.740;10.154;2023-05-20T02:55:36;14.80;41.30
74364;DHT22;62797;49.740;10.154;2023-05-20T02:58:02;14.80;41.40
74364;DHT22;62797;49.740;10.154;2023-05-20T03:00:31;14.70;41.70
74364;DHT22;62797;49.740;10.154;2023-05-20T03:02:59;14.80;41.80
74364;DHT22;62797;49.740;10.154;2023-05-20T03:05:27;14.70;41.90
74364;DHT22;62797;49.740;10.154;2023-05-20T03:07:53;14.70;41.90
74364;DHT22;62797;49.740;10.154;2023-05-20T03:10:19;14.80;41.60
74364;DHT22;62797;49.740;10.154;2023-05-20T03:12:44;14.80;42.50
74364;DHT22;62797;49.740;10.154;2023-05-20T03:15:10;14.80;41.70
74364;DHT22;62797;49.740;10.154;2023-05-20T03:17:37;14.80;41.70
74364;DHT22;62797;49.740;10.154;2023-05-20T03:20:03;14.80;42.30
74364;DHT22;62797;49.740;10.154;2023-05-20T03:22:32;14.70;42.00
74364;DHT22;62797;49.740;10.154;2023-05-20T03:24:58;14.70;41.90
74364;DHT22;62797;49.740;10.154;2023-05-20T03:27:25;14.80;42.30
74364;DHT22;62797;49.740;10.154;2023-05-20T03:29:51;14.70;42.90
74364;DHT22;62797;49.740;10.154;2023-05-20T03:32:19;14.70;42.30
74364;DHT22;62797;49.740;10.154;2023-05-20T03:34:45;14.80;41.90
74364;DHT22;62797;49.740;10.154;2023-05-20T03:37:14;14.70;42.20
74364;DHT22;62797;49.740;10.154;2023-05-20T03:39:40;14.70;41.90
74364;DHT22;62797;49.740;10.154;2023-05-20T03:42:07;14.70;42.30
74364;DHT22;62797;49.740;10.154;2023-05-20T03:44:33;14.70;42.00
74364;DHT22;62797;49.740;10.154;2023-05-20T03:47:01;14.70;42.70
74364;DHT22;62797;49.740;10.154;2023-05-20T03:49:29;14.70;42.00
74364;DHT22;62797;49.740;10.154;2023-05-20T03:51:55;14.80;41.80
74364;DHT22;62797;49.740;10.154;2023-05-20T03:54:21;14.80;42.40
74364;DHT22;62797;49.740;10.154;2023-05-20T03:56:49;14.70;42.30
74364;DHT22;62797;49.740;10.154;2023-05-20T03:59:17;14.70;42.30
74364;DHT22;62797;49.740;10.154;2023-05-20T04:01:43;14.70;42.80
74364;DHT22;62797;49.740;10.154;2023-05-20T04:04:09;14.70;42.50
74364;DHT22;62797;49.740;10.154;2023-05-20T04:06:35;14.70;42.30
74364;DHT22;62797;49.740;10.154;2023-05-20T04:09:01;14.80;42.40
74364;DHT22;62797;49.740;10.154;2023-05-20T04:11:27;14.80;42.70
74364;DHT22;62797;49.740;10.154;2023-05-20T04:13:53;14.80;42.40
74364;DHT22;62797;49.740;10.154;2023-05-20T04:16:19;14.80;42.60
74364;DHT22;62797;49.740;10.154;2023-05-20T04:18:45;14.80;43.10
74364;DHT22;62797;49.740;10.154;2023-05-20T04:21:12;14.70;42.70
74364;DHT22;62797;49.740;10.154;2023-05-20T04:23:39;14.70;42.60
74364;DHT22;62797;49.740;10.154;2023-05-20T04:26:05;14.80;42.20
74364;DHT22;62797;49.740;10.154;2023-05-20T04:28:31;14.80;42.60
74364;DHT22;62797;49.740;10.154;2023-05-20T04:30:58;14.80;42.50
74364;DHT22;62797;49.740;10.154;2023-05-20T04:33:25;14.90;42.50
74364;DHT22;62797;49.740;10.154;2023-05-20T04:35:51;14.90;42.50
74364;DHT22;62797;49.740;10.154;2023-05-20T04:38:17;15.00;42.40
74364;DHT22;62797;49.740;10.154;2023-05-20T04:40:43;15.00;42.30
74364;DHT22;62797;49.740;10.154;2023-05-20T04:43:09;15.00;42.40
74364;DHT22;62797;49.740;10.154;2023-05-20T04:45:35;15.00;42.70
74364;DHT22;62797;49.740;10.154;2023-05-20T04:48:01;15.00;42.50
74364;DHT22;62797;49.740;10.154;2023-05-20T04:50:27;14.90;42.90
74364;DHT22;62797;49.740;10.154;2023-05-20T04:52:53;14.90;42.90
74364;DHT22;62797;49.740;10.154;2023-05-20T04:55:20;15.00;42.70
74364;DHT22;62797;49.740;10.154;2023-05-20T04:57:49;15.00;42.80
74364;DHT22;62797;49.740;10.154;2023-05-20T05:00:16;15.00;43.10
74364;DHT22;62797;49.740;10.154;2023-05-20T05:02:42;15.00;43.20
74364;DHT22;62797;49.740;10.154;2023-05-20T05:05:08;15.10;43.30
74364;DHT22;62797;49.740;10.154;2023-05-20T05:07:34;15.10;43.90
74364;DHT22;62797;49.740;10.154;2023-05-20T05:10:00;15.20;44.20
74364;DHT22;62797;49.740;10.154;2023-05-20T05:12:29;15.10;43.40
74364;DHT22;62797;49.740;10.154;2023-05-20T05:14:55;15.20;43.30
74364;DHT22;62797;49.740;10.154;2023-05-20T05:17:22;15.20;43.40
74364;DHT22;62797;49.740;10.154;2023-05-20T05:19:48;15.30;43.40
74364;DHT22;62797;49.740;10.154;2023-05-20T05:22:14;15.30;43.40
74364;DHT22;62797;49.740;10.154;2023-05-20T05:24:40;15.30;43.20
74364;DHT22;62797;49.740;10.154;2023-05-20T05:27:06;15.40;42.90
74364;DHT22;62797;49.740;10.154;2023-05-20T05:29:32;15.40;42.90
74364;DHT22;62797;49.740;10.154;2023-05-20T05:31:57;15.40;42.70
74364;DHT22;62797;49.740;10.154;2023-05-20T05:34:24;15.30;42.70
74364;DHT22;62797;49.740;10.154;2023-05-20T05:36:50;15.40;42.90
74364;DHT22;62797;49.740;10.154;2023-05-20T05:39:16;15.40;42.80
74364;DHT22;62797;49.740;10.154;2023-05-20T05:41:43;15.40;42.40
74364;DHT22;62797;49.740;10.154;2023-05-20T05:44:09;15.40;42.60
74364;DHT22;62797;49.740;10.154;2023-05-20T05:46:35;15.40;42.70
74364;DHT22;62797;49.740;10.154;2023-05-20T05:49:01;15.50;42.70
74364;DHT22;62797;49.740;10.154;2023-05-20T05:51:27;15.40;43.20
74364;DHT22;62797;49.740;10.154;2023-05-20T05:53:54;15.40;42.90
74364;DHT22;62797;49.740;10.154;2023-05-20T05:56:20;15.40;42.80
74364;DHT22;62797;49.740;10.154;2023-05-20T05:58:46;15.50;43.20
74364;DHT22;62797;49.740;10.154;2023-05-20T06:01:15;15.50;42.30
74364;DHT22;62797;49.740;10.154;2023-05-20T06:03:42;15.50;42.60
74364;DHT22;62797;49.740;10.154;2023-05-20T06:06:08;15.50;43.20
74364;DHT22;62797;49.740;10.154;2023-05-20T06:08:34;15.60;42.90
74364;DHT22;62797;49.740;10.154;2023-05-20T06:11:02;15.70;42.60
74364;DHT22;62797;49.740;10.154;2023-05-20T06:13:29;15.70;42.50
74364;DHT22;62797;49.740;10.154;2023-05-20T06:15:55;15.70;42.40
74364;DHT22;62797;49.740;10.154;2023-05-20T06:18:24;15.70;42.90
74364;DHT22;62797;49.740;10.154;2023-05-20T06:20:57;15.80;42.60
74364;DHT22;62797;49.740;10.154;2023-05-20T06:23:26;16.00;42.30
74364;DHT22;62797;49.740;10.154;2023-05-20T06:25:59;16.20;42.10
74364;DHT22;62797;49.740;10.154;2023-05-20T06:28:28;16.30;41.50
74364;DHT22;62797;49.740;10.154;2023-05-20T06:30:54;16.40;41.30
74364;DHT22;62797;49.740;10.154;2023-05-20T06:33:22;16.50;40.10
74364;DHT22;62797;49.740;10.154;2023-05-20T06:35:55;16.60;39.70
74364;DHT22;62797;49.740;10.154;2023-05-20T06:38:22;16.70;39.70
74364;DHT22;62797;49.740;10.154;2023-05-20T06:40:49;16.80;39.70
74364;DHT22;62797;49.740;10.154;2023-05-20T06:43:15;17.00;39.70
74364;DHT22;62797;49.740;10.154;2023-05-20T06:45:51;17.10;38.90
74364;DHT22;62797;49.740;10.154;2023-05-20T06:48:26;17.20;38.70
74364;DHT22;62797;49.740;10.154;2023-05-20T06:50:52;17.20;37.80
74364;DHT22;62797;49.740;10.154;2023-05-20T06:53:18;17.20;37.60
74364;DHT22;62797;49.740;10.154;2023-05-20T06:55:44;17.20;37.90
74364;DHT22;62797;49.740;10.154;2023-05-20T06:58:12;17.30;37.90
74364;DHT22;62797;49.740;10.154;2023-05-20T07:00:39;17.30;37.60
74364;DHT22;62797;49.740;10.154;2023-05-20T07:03:05;17.30;37.00
74364;DHT22;62797;49.740;10.154;2023-05-20T07:05:31;17.30;37.00
74364;DHT22;62797;49.740;10.154;2023-05-20T07:07:57;17.30;37.00
74364;DHT22;62797;49.740;10.154;2023-05-20T07:10:23;17.30;36.50
74364;DHT22;62797;49.740;10.154;2023-05-20T07:12:49;17.30;36.80
74364;DHT22;62797;49.740;10.154;2023-05-20T07:15:14;17.30;37.00
74364;DHT22;62797;49.740;10.154;2023-05-20T07:17:41;17.30;36.90
74364;DHT22;62797;49.740;10.154;2023-05-20T07:20:07;17.30;36.90
74364;DHT22;62797;49.740;10.154;2023-05-20T07:22:34;17.30;37.40
74364;DHT22;62797;49.740;10.154;2023-05-20T07:25:20;17.40;36.90
74364;DHT22;62797;49.740;10.154;2023-05-20T07:27:46;17.40;36.30
74364;DHT22;62797;49.740;10.154;2023-05-20T07:30:12;17.40;37.00
74364;DHT22;62797;49.740;10.154;2023-05-20T07:32:40;17.30;37.20
74364;DHT22;62797;49.740;10.154;2023-05-20T07:35:08;17.30;36.80
74364;DHT22;62797;49.740;10.154;2023-05-20T07:37:33;17.30;37.20
74364;DHT22;62797;49.740;10.154;2023-05-20T07:40:01;17.30;36.90
74364;DHT22;62797;49.740;10.154;2023-05-20T07:42:30;17.30;36.90
74364;DHT22;62797;49.740;10.154;2023-05-20T07:44:59;17.20;36.30
74364;DHT22;62797;49.740;10.154;2023-05-20T07:47:25;17.20;37.80
74364;DHT22;62797;49.740;10.154;2023-05-20T07:49:50;17.20;37.10
74364;DHT22;62797;49.740;10.154;2023-05-20T07:52:16;17.30;37.00
74364;DHT22;62797;49.740;10.154;2023-05-20T07:54:42;17.40;37.90
74364;DHT22;62797;49.740;10.154;2023-05-20T07:57:08;17.40;37.00
74364;DHT22;62797;49.740;10.154;2023-05-20T07:59:33;17.60;36.40
74364;DHT22;62797;49.740;10.154;2023-05-20T08:01:59;17.60;36.50
74364;DHT22;62797;49.740;10.154;2023-05-20T08:04:25;17.60;35.90
74364;DHT22;62797;49.740;10.154;2023-05-20T08:06:55;17.70;36.20
74364;DHT22;62797;49.740;10.154;2023-05-20T08:09:43;17.80;35.80
74364;DHT22;62797;49.740;10.154;2023-05-20T08:12:09;18.00;35.40
74364;DHT22;62797;49.740;10.154;2023-05-20T08:14:35;18.10;35.50
74364;DHT22;62797;49.740;10.154;2023-05-20T08:17:02;18.30;35.50
74364;DHT22;62797;49.740;10.154;2023-05-20T08:19:28;18.30;34.90
74364;DHT22;62797;49.740;10.154;2023-05-20T08:21:54;18.30;34.30
74364;DHT22;62797;49.740;10.154;2023-05-20T08:24:21;18.30;34.30
74364;DHT22;62797;49.740;10.154;2023-05-20T08:26:48;18.30;34.90
74364;DHT22;62797;49.740;10.154;2023-05-20T08:29:15;18.30;34.70
74364;DHT22;62797;49.740;10.154;2023-05-20T08:31:43;18.30;34.70
74364;DHT22;62797;49.740;10.154;2023-05-20T08:34:09;18.50;35.10
74364;DHT22;62797;49.740;10.154;2023-05-20T08:36:38;18.70;34.70
74364;DHT22;62797;49.740;10.154;2023-05-20T08:39:04;18.70;34.50
74364;DHT22;62797;49.740;10.154;2023-05-20T08:41:37;18.80;33.40
74364;DHT22;62797;49.740;10.154;2023-05-20T08:44:04;19.00;33.70
74364;DHT22;62797;49.740;10.154;2023-05-20T08:46:33;19.10;33.50
74364;DHT22;62797;49.740;10.154;2023-05-20T08:49:02;19.10;34.10
74364;DHT22;62797;49.740;10.154;2023-05-20T08:51:31;19.00;33.60
74364;DHT22;62797;49.740;10.154;2023-05-20T08:54:01;19.10;34.00
74364;DHT22;62797;49.740;10.154;2023-05-20T08:56:31;19.30;33.10
74364;DHT22;62797;49.740;10.154;2023-05-20T08:58:58;19.40;33.10
74364;DHT22;62797;49.740;10.154;2023-05-20T09:01:24;19.30;33.00
74364;DHT22;62797;49.740;10.154;2023-05-20T09:03:50;19.50;32.40
74364;DHT22;62797;49.740;10.154;2023-05-20T09:06:17;19.50;31.60
74364;DHT22;62797;49.740;10.154;2023-05-20T09:08:48;19.60;32.30
74364;DHT22;62797;49.740;10.154;2023-05-20T09:11:15;19.70;31.10
74364;DHT22;62797;49.740;10.154;2023-05-20T09:13:41;19.70;31.60
74364;DHT22;62797;49.740;10.154;2023-05-20T09:16:09;19.70;31.30
74364;DHT22;62797;49.740;10.154;2023-05-20T09:18:45;19.80;30.60
74364;DHT22;62797;49.740;10.154;2023-05-20T09:21:11;20.10;31.90
74364;DHT22;62797;49.740;10.154;2023-05-20T09:23:37;20.40;30.30
74364;DHT22;62797;49.740;10.154;2023-05-20T09:26:04;20.60;30.60
74364;DHT22;62797;49.740;10.154;2023-05-20T09:28:33;20.80;30.30
74364;DHT22;62797;49.740;10.154;2023-05-20T09:31:00;21.20;29.20
74364;DHT22;62797;49.740;10.154;2023-05-20T09:33:28;21.60;27.70
74364;DHT22;62797;49.740;10.154;2023-05-20T09:36:03;21.70;27.50
74364;DHT22;62797;49.740;10.154;2023-05-20T09:38:35;21.60;27.80
74364;DHT22;62797;49.740;10.154;2023-05-20T09:41:09;21.50;27.50
74364;DHT22;62797;49.740;10.154;2023-05-20T09:43:38;21.30;27.60
74364;DHT22;62797;49.740;10.154;2023-05-20T09:46:11;21.20;26.90
74364;DHT22;62797;49.740;10.154;2023-05-20T09:48:37;21.10;27.50
74364;DHT22;62797;49.740;10.154;2023-05-20T09:51:04;21.30;26.10
74364;DHT22;62797;49.740;10.154;2023-05-20T09:53:31;21.40;26.40
74364;DHT22;62797;49.740;10.154;2023-05-20T09:55:57;21.50;25.90
74364;DHT22;62797;49.740;10.154;2023-05-20T09:58:23;21.50;26.20
74364;DHT22;62797;49.740;10.154;2023-05-20T10:00:50;21.60;26.30
74364;DHT22;62797;49.740;10.154;2023-05-20T10:03:17;21.80;25.70
74364;DHT22;62797;49.740;10.154;2023-05-20T10:06:22;22.20;25.10
74364;DHT22;62797;49.740;10.154;2023-05-20T10:19:28;23.20;22.70
74364;DHT22;62797;49.740;10.154;2023-05-20T10:22:00;23.40;21.80
74364;DHT22;62797;49.740;10.154;2023-05-20T10:24:41;23.50;22.20
74364;DHT22;62797;49.740;10.154;2023-05-20T10:27:12;23.30;22.00
74364;DHT22;62797;49.740;10.154;2023-05-20T10:29:55;23.50;21.70
74364;DHT22;62797;49.740;10.154;2023-05-20T10:32:31;23.80;21.90
74364;DHT22;62797;49.740;10.154;2023-05-20T10:35:02;24.00;21.50
74364;DHT22;62797;49.740;10.154;2023-05-20T10:37:38;24.00;22.10
74364;DHT22;62797;49.740;10.154;2023-05-20T10:42:34;24.20;19.60
74364;DHT22;62797;49.740;10.154;2023-05-20T10:45:00;24.10;19.80
74364;DHT22;62797;49.740;10.154;2023-05-20T10:47:26;24.00;20.60
74364;DHT22;62797;49.740;10.154;2023-05-20T10:49:52;23.80;21.10
74364;DHT22;62797;49.740;10.154;2023-05-20T10:52:19;23.70;20.90
74364;DHT22;62797;49.740;10.154;2023-05-20T10:54:58;23.50;20.90
74364;DHT22;62797;49.740;10.154;2023-05-20T10:57:28;23.50;22.30
74364;DHT22;62797;49.740;10.154;2023-05-20T10:59:55;23.40;20.80
74364;DHT22;62797;49.740;10.154;2023-05-20T11:02:21;23.30;20.90
74364;DHT22;62797;49.740;10.154;2023-05-20T11:04:55;23.40;20.90
74364;DHT22;62797;49.740;10.154;2023-05-20T11:07:27;23.80;21.60
74364;DHT22;62797;49.740;10.154;2023-05-20T11:09:57;24.10;20.30
74364;DHT22;62797;49.740;10.154;2023-05-20T11:12:24;24.50;20.00
74364;DHT22;62797;49.740;10.154;2023-05-20T11:14:50;24.70;19.50
74364;DHT22;62797;49.740;10.154;2023-05-20T11:17:16;24.70;20.20
74364;DHT22;62797;49.740;10.154;2023-05-20T11:19:42;24.60;18.20
74364;DHT22;62797;49.740;10.154;2023-05-20T11:22:09;24.40;19.40
74364;DHT22;62797;49.740;10.154;2023-05-20T11:24:36;24.40;19.20
74364;DHT22;62797;49.740;10.154;2023-05-20T11:27:01;24.30;20.00
74364;DHT22;62797;49.740;10.154;2023-05-20T11:29:28;24.20;19.60
74364;DHT22;62797;49.740;10.154;2023-05-20T11:31:57;24.30;19.80
74364;DHT22;62797;49.740;10.154;2023-05-20T11:34:23;24.20;20.30
74364;DHT22;62797;49.740;10.154;2023-05-20T11:36:59;24.20;20.40
74364;DHT22;62797;49.740;10.154;2023-05-20T11:39:28;24.10;20.10
74364;DHT22;62797;49.740;10.154;2023-05-20T11:41:54;24.10;21.50
74364;DHT22;62797;49.740;10.154;2023-05-20T11:44:20;24.00;20.30
74364;DHT22;62797;49.740;10.154;2023-05-20T11:46:46;24.00;20.10
74364;DHT22;62797;49.740;10.154;2023-05-20T11:49:13;23.90;20.60
74364;DHT22;62797;49.740;10.154;2023-05-20T11:51:39;23.80;20.30
74364;DHT22;62797;49.740;10.154;2023-05-20T11:54:06;23.80;21.20
74364;DHT22;62797;49.740;10.154;2023-05-20T11:56:37;23.80;20.60
74364;DHT22;62797;49.740;10.154;2023-05-20T11:59:05;23.60;22.20
74364;DHT22;62797;49.740;10.154;2023-05-20T12:01:37;24.00;21.30
74364;DHT22;62797;49.740;10.154;2023-05-20T12:04:07;24.30;20.90
74364;DHT22;62797;49.740;10.154;2023-05-20T12:06:33;24.40;20.00
74364;DHT22;62797;49.740;10.154;2023-05-20T12:09:02;24.30;19.80
74364;DHT22;62797;49.740;10.154;2023-05-20T12:11:41;24.30;19.60
74364;DHT22;62797;49.740;10.154;2023-05-20T12:14:07;24.40;19.30
74364;DHT22;62797;49.740;10.154;2023-05-20T12:16:34;24.60;19.20
74364;DHT22;62797;49.740;10.154;2023-05-20T12:19:00;24.60;19.70
74364;DHT22;62797;49.740;10.154;2023-05-20T12:21:28;24.60;19.20
74364;DHT22;62797;49.740;10.154;2023-05-20T12:23:54;24.50;18.90
74364;DHT22;62797;49.740;10.154;2023-05-20T12:26:27;24.40;18.70
74364;DHT22;62797;49.740;10.154;2023-05-20T12:28:54;24.50;19.40
74364;DHT22;62797;49.740;10.154;2023-05-20T12:31:20;24.50;19.30
74364;DHT22;62797;49.740;10.154;2023-05-20T12:33:45;24.50;19.20
74364;DHT22;62797;49.740;10.154;2023-05-20T12:36:11;24.60;19.20
74364;DHT22;62797;49.740;10.154;2023-05-20T12:38:37;24.70;19.80
74364;DHT22;62797;49.740;10.154;2023-05-20T12:41:03;24.60;18.60
74364;DHT22;62797;49.740;10.154;2023-05-20T12:43:29;24.50;18.50
74364;DHT22;62797;49.740;10.154;2023-05-20T12:45:55;24.40;19.30
74364;DHT22;62797;49.740;10.154;2023-05-20T12:48:20;24.40;18.90
74364;DHT22;62797;49.740;10.154;2023-05-20T12:50:46;24.30;18.40
74364;DHT22;62797;49.740;10.154;2023-05-20T12:53:12;24.20;18.60
74364;DHT22;62797;49.740;10.154;2023-05-20T12:55:38;24.30;19.70
74364;DHT22;62797;49.740;10.154;2023-05-20T12:58:05;24.50;18.80
74364;DHT22;62797;49.740;10.154;2023-05-20T13:00:36;24.70;20.50
74364;DHT22;62797;49.740;10.154;2023-05-20T13:03:02;24.90;19.40
74364;DHT22;62797;49.740;10.154;2023-05-20T13:05:32;25.10;18.60
74364;DHT22;62797;49.740;10.154;2023-05-20T13:07:58;25.20;18.40
74364;DHT22;62797;49.740;10.154;2023-05-20T13:10:24;25.10;18.10
74364;DHT22;62797;49.740;10.154;2023-05-20T13:12:50;25.20;18.50
74364;DHT22;62797;49.740;10.154;2023-05-20T13:15:19;25.10;18.00
74364;DHT22;62797;49.740;10.154;2023-05-20T13:17:45;25.00;18.70
74364;DHT22;62797;49.740;10.154;2023-05-20T13:20:11;25.00;18.50
74364;DHT22;62797;49.740;10.154;2023-05-20T13:22:37;24.80;19.20
74364;DHT22;62797;49.740;10.154;2023-05-20T13:25:03;24.80;19.30
74364;DHT22;62797;49.740;10.154;2023-05-20T13:27:29;24.70;19.90
74364;DHT22;62797;49.740;10.154;2023-05-20T13:29:55;24.70;20.00
74364;DHT22;62797;49.740;10.154;2023-05-20T13:32:25;24.60;20.10
74364;DHT22;62797;49.740;10.154;2023-05-20T13:34:51;24.60;18.90
74364;DHT22;62797;49.740;10.154;2023-05-20T13:37:16;24.70;19.60
74364;DHT22;62797;49.740;10.154;2023-05-20T13:39:42;24.70;20.10
74364;DHT22;62797;49.740;10.154;2023-05-20T13:42:08;24.70;19.60
74364;DHT22;62797;49.740;10.154;2023-05-20T13:44:33;24.40;19.50
74364;DHT22;62797;49.740;10.154;2023-05-20T13:46:59;24.40;19.40
74364;DHT22;62797;49.740;10.154;2023-05-20T13:49:25;24.50;19.50
74364;DHT22;62797;49.740;10.154;2023-05-20T13:51:51;24.80;19.40
74364;DHT22;62797;49.740;10.154;2023-05-20T13:54:16;25.10;20.30
74364;DHT22;62797;49.740;10.154;2023-05-20T13:56:42;25.20;19.20
74364;DHT22;62797;49.740;10.154;2023-05-20T13:59:08;25.20;18.60
74364;DHT22;62797;49.740;10.154;2023-05-20T14:01:34;25.00;18.70
74364;DHT22;62797;49.740;10.154;2023-05-20T14:04:00;24.90;18.40
74364;DHT22;62797;49.740;10.154;2023-05-20T14:06:26;24.90;19.10
74364;DHT22;62797;49.740;10.154;2023-05-20T14:08:55;24.80;19.90
74364;DHT22;62797;49.740;10.154;2023-05-20T14:11:22;25.10;18.30
74364;DHT22;62797;49.740;10.154;2023-05-20T14:13:48;25.50;18.70
74364;DHT22;62797;49.740;10.154;2023-05-20T14:16:14;25.80;17.50
74364;DHT22;62797;49.740;10.154;2023-05-20T14:18:40;26.10;18.20
74364;DHT22;62797;49.740;10.154;2023-05-20T14:21:06;26.00;17.50
74364;DHT22;62797;49.740;10.154;2023-05-20T14:23:41;25.80;17.30
74364;DHT22;62797;49.740;10.154;2023-05-20T14:26:19;25.60;17.50
74364;DHT22;62797;49.740;10.154;2023-05-20T14:28:46;25.70;17.80
74364;DHT22;62797;49.740;10.154;2023-05-20T14:31:11;25.70;17.80
74364;DHT22;62797;49.740;10.154;2023-05-20T14:33:43;25.90;17.00
74364;DHT22;62797;49.740;10.154;2023-05-20T14:36:09;25.80;16.10
74364;DHT22;62797;49.740;10.154;2023-05-20T14:38:36;25.70;16.50
74364;DHT22;62797;49.740;10.154;2023-05-20T14:41:02;25.60;17.50
74364;DHT22;62797;49.740;10.154;2023-05-20T14:43:27;25.70;16.20
74364;DHT22;62797;49.740;10.154;2023-05-20T14:45:54;25.80;16.50
74364;DHT22;62797;49.740;10.154;2023-05-20T14:48:20;25.90;16.80
74364;DHT22;62797;49.740;10.154;2023-05-20T14:50:45;26.10;16.70
74364;DHT22;62797;49.740;10.154;2023-05-20T14:53:11;26.20;17.10
74364;DHT22;62797;49.740;10.154;2023-05-20T14:55:37;26.30;17.00
74364;DHT22;62797;49.740;10.154;2023-05-20T14:58:02;26.20;16.60
74364;DHT22;62797;49.740;10.154;2023-05-20T15:00:29;26.20;17.00
74364;DHT22;62797;49.740;10.154;2023-05-20T15:02:56;26.30;16.70
74364;DHT22;62797;49.740;10.154;2023-05-20T15:05:22;26.20;16.50
74364;DHT22;62797;49.740;10.154;2023-05-20T15:07:49;26.10;16.70
74364;DHT22;62797;49.740;10.154;2023-05-20T15:10:15;25.90;16.60
74364;DHT22;62797;49.740;10.154;2023-05-20T15:12:41;25.80;16.40
74364;DHT22;62797;49.740;10.154;2023-05-20T15:15:10;25.70;16.50
74364;DHT22;62797;49.740;10.154;2023-05-20T15:17:36;25.60;16.80
74364;DHT22;62797;49.740;10.154;2023-05-20T15:20:02;25.40;17.10
74364;DHT22;62797;49.740;10.154;2023-05-20T15:22:28;25.30;17.10
74364;DHT22;62797;49.740;10.154;2023-05-20T15:24:54;25.20;17.60
74364;DHT22;62797;49.740;10.154;2023-05-20T15:27:19;25.00;17.80
74364;DHT22;62797;49.740;10.154;2023-05-20T15:29:45;24.90;17.90